sensor_id;sensor_type;location;lat;lon;timestamp;temperature;humidity
5848;DHT22;8756;49.29324300;8.70599800;2023-04-06T00:01:40;2.00;99.90
5848;DHT22;8756;49.29324300;8.70599800;2023-04-06T00:04:06;2.00;99.90
5848;DHT22;8756;49.29324300;8.70599800;2023-04-06T00:06:32;1.90;99.90
5848;DHT22;8756;49.29324300;8.70599800;2023-04-06T00:08:59;1.90;99.90
5848;DHT22;8756;49.29324300;8.70599800;2023-04-06T00:11:26;1.90;99.90
5848;DHT22;8756;49.29324300;8.70599800;2023-04-06T00:13:52;1.90;99.90
5848;DHT22;8756;49.29324300;8.70599800;2023-04-06T00:16:19;1.90;99.90
5848;DHT22;8756;49.29324300;8.70599800;2023-04-06T00:18:45;1.90;99.90
5848;DHT22;8756;49.29324300;8.70599800;2023-04-06T00:21:11;1.80;99.90
5848;DHT22;8756;49.29324300;8.70599800;2023-04-06T00:23:38;1.80;99.90
5848;DHT22;8756;49.29324300;8.70599800;2023-04-06T00:26:04;1.80;99.90
5848;DHT22;8756;49.29324300;8.70599800;2023-04-06T00:28:30;1.80;99.90
5848;DHT22;8756;49.29324300;8.70599800;2023-04-06T00:30:56;1.80;99.90
5848;DHT22;8756;49.29324300;8.70599800;2023-04-06T00:33:22;1.80;99.90
5848;DHT22;8756;49.29324300;8.70599800;2023-04-06T00:35:48;1.80;99.90
5848;DHT22;8756;49.29324300;8.70599800;2023-04-06T00:38:14;1.80;99.90
5848;DHT22;8756;49.29324300;8.70599800;2023-04-06T00:40:41;1.80;99.90
5848;DHT22;8756;49.29324300;8.70599800;2023-04-06T00:43:07;1.80;99.90
5848;DHT22;8756;49.29324300;8.70599800;2023-04-06T00:45:36;1.70;99.90
5848;DHT22;8756;49.29324300;8.70599800;2023-04-06T00:48:01;1.70;99.90
5848;DHT22;8756;49.29324300;8.70599800;2023-04-06T00:50:27;1.80;99.90
5848;DHT22;8756;49.29324300;8.70599800;2023-04-06T00:52:54;1.70;99.90
5848;DHT22;8756;49.29324300;8.70599800;2023-04-06T00:55:20;1.80;99.90
5848;DHT22;8756;49.29324300;8.70599800;2023-04-06T00:57:46;1.70;99.90
5848;DHT22;8756;49.29324300;8.70599800;2023-04-06T01:00:15;1.70;99.90
5848;DHT22;8756;49.29324300;8.70599800;2023-04-06T01:02:45;1.70;99.90
5848;DHT22;8756;49.29324300;8.70599800;2023-04-06T01:05:11;1.80;99.90
5848;DHT22;8756;49.29324300;8.70599800;2023-04-06T01:07:37;1.80;99.90
5848;DHT22;8756;49.29324300;8.70599800;2023-04-06T01:10:03;1.70;99.90
5848;DHT22;8756;49.29324300;8.70599800;2023-04-06T01:12:29;1.80;99.90
5848;DHT22;8756;49.29324300;8.70599800;2023-04-06T01:14:55;1.70;99.90
5848;DHT22;8756;49.29324300;8.70599800;2023-04-06T01:17:21;1.70;99.90
5848;DHT22;8756;49.29324300;8.70599800;2023-04-06T01:19:47;1.70;99.90
5848;DHT22;8756;49.29324300;8.70599800;2023-04-06T01:22:18;1.70;99.90
5848;DHT22;8756;49.29324300;8.70599800;2023-04-06T01:24:44;1.70;99.90
5848;DHT22;8756;49.29324300;8.70599800;2023-04-06T01:27:10;1.70;99.90
5848;DHT22;8756;49.29324300;8.70599800;2023-04-06T01:29:36;1.70;99.90
5848;DHT22;8756;49.29324300;8.70599800;2023-04-06T01:32:02;1.70;99.90
5848;DHT22;8756;49.29324300;8.70599800;2023-04-06T01:34:27;1.70;99.90
5848;DHT22;8756;49.29324300;8.70599800;2023-04-06T01:36:53;1.70;99.90
5848;DHT22;8756;49.29324300;8.70599800;2023-04-06T01:39:19;1.70;99.90
5848;DHT22;8756;49.29324300;8.70599800;2023-04-06T01:41:45;1.60;99.90
5848;DHT22;8756;49.29324300;8.70599800;2023-04-06T01:44:14;1.60;99.90
5848;DHT22;8756;49.29324300;8.70599800;2023-04-06T01:46:41;1.60;99.90
5848;DHT22;8756;49.29324300;8.70599800;2023-04-06T01:49:07;1.50;99.90
5848;DHT22;8756;49.29324300;8.70599800;2023-04-06T01:51:32;1.60;99.90
5848;DHT22;8756;49.29324300;8.70599800;2023-04-06T01:53:58;1.50;99.90
5848;DHT22;8756;49.29324300;8.70599800;2023-04-06T01:56:24;1.50;99.90
5848;DHT22;8756;49.29324300;8.70599800;2023-04-06T01:58:49;1.50;99.90
5848;DHT22;8756;49.29324300;8.70599800;2023-04-06T02:01:18;1.50;99.90
5848;DHT22;8756;49.29324300;8.70599800;2023-04-06T02:03:44;1.50;99.90
5848;DHT22;8756;49.29324300;8.70599800;2023-04-06T02:06:10;1.50;99.90
5848;DHT22;8756;49.29324300;8.70599800;2023-04-06T02:08:35;1.50;99.90
5848;DHT22;8756;49.29324300;8.70599800;2023-04-06T02:11:01;1.50;99.90
5848;DHT22;8756;49.29324300;8.70599800;2023-04-06T02:13:26;1.50;99.90
5848;DHT22;8756;49.29324300;8.70599800;2023-04-06T02:15:52;1.50;99.90
5848;DHT22;8756;49.29324300;8.70599800;2023-04-06T02:18:18;1.50;99.90
5848;DHT22;8756;49.29324300;8.70599800;2023-04-06T02:20:44;1.50;99.90
5848;DHT22;8756;49.29324300;8.70599800;2023-04-06T02:23:10;1.50;99.90
5848;DHT22;8756;49.29324300;8.70599800;2023-04-06T02:25:36;1.50;99.90
5848;DHT22;8756;49.29324300;8.70599800;2023-04-06T02:28:02;1.50;99.90
5848;DHT22;8756;49.29324300;8.70599800;2023-04-06T02:30:27;1.50;99.90
5848;DHT22;8756;49.29324300;8.70599800;2023-04-06T02:32:54;1.50;99.90
5848;DHT22;8756;49.29324300;8.70599800;2023-04-06T02:35:20;1.50;99.90
5848;DHT22;8756;49.29324300;8.70599800;2023-04-06T02:37:45;1.50;99.90
5848;DHT22;8756;49.29324300;8.70599800;2023-04-06T02:40:11;1.50;99.90
5848;DHT22;8756;49.29324300;8.70599800;2023-04-06T02:42:37;1.50;99.90
5848;DHT22;8756;49.29324300;8.70599800;2023-04-06T02:45:02;1.50;99.90
5848;DHT22;8756;49.29324300;8.70599800;2023-04-06T02:47:28;1.40;99.90
5848;DHT22;8756;49.29324300;8.70599800;2023-04-06T02:49:54;1.40;99.90
5848;DHT22;8756;49.29324300;8.70599800;2023-04-06T02:52:20;1.40;99.90
5848;DHT22;8756;49.29324300;8.70599800;2023-04-06T02:54:45;1.40;99.90
5848;DHT22;8756;49.29324300;8.70599800;2023-04-06T02:57:11;1.40;99.90
5848;DHT22;8756;49.29324300;8.70599800;2023-04-06T02:59:37;1.40;99.90
5848;DHT22;8756;49.29324300;8.70599800;2023-04-06T03:02:02;1.40;99.90
5848;DHT22;8756;49.29324300;8.70599800;2023-04-06T03:04:28;1.40;99.90
5848;DHT22;8756;49.29324300;8.70599800;2023-04-06T03:06:54;1.40;99.90
5848;DHT22;8756;49.29324300;8.70599800;2023-04-06T03:09:20;1.40;99.90
5848;DHT22;8756;49.29324300;8.70599800;2023-04-06T03:11:46;1.40;99.90
5848;DHT22;8756;49.29324300;8.70599800;2023-04-06T03:14:12;1.40;99.90
5848;DHT22;8756;49.29324300;8.70599800;2023-04-06T03:16:38;1.40;99.90
5848;DHT22;8756;49.29324300;8.70599800;2023-04-06T03:19:03;1.30;99.90
5848;DHT22;8756;49.29324300;8.70599800;2023-04-06T03:21:29;1.30;99.90
5848;DHT22;8756;49.29324300;8.70599800;2023-04-06T03:23:54;1.30;99.90
5848;DHT22;8756;49.29324300;8.70599800;2023-04-06T03:26:20;1.30;99.90
5848;DHT22;8756;49.29324300;8.70599800;2023-04-06T03:28:47;1.30;99.90
5848;DHT22;8756;49.29324300;8.70599800;2023-04-06T03:31:13;1.20;99.90
5848;DHT22;8756;49.29324300;8.70599800;2023-04-06T03:33:38;1.30;99.90
5848;DHT22;8756;49.29324300;8.70599800;2023-04-06T03:36:04;1.20;99.90
5848;DHT22;8756;49.29324300;8.70599800;2023-04-06T03:38:30;1.20;99.90
5848;DHT22;8756;49.29324300;8.70599800;2023-04-06T03:40:56;1.20;99.90
5848;DHT22;8756;49.29324300;8.70599800;2023-04-06T03:43:21;1.20;99.90
5848;DHT22;8756;49.29324300;8.70599800;2023-04-06T03:45:47;1.10;99.90
5848;DHT22;8756;49.29324300;8.70599800;2023-04-06T03:48:13;1.00;99.90
5848;DHT22;8756;49.29324300;8.70599800;2023-04-06T03:50:39;1.00;99.90
5848;DHT22;8756;49.29324300;8.70599800;2023-04-06T03:53:04;1.00;99.90
5848;DHT22;8756;49.29324300;8.70599800;2023-04-06T03:55:30;1.00;99.90
5848;DHT22;8756;49.29324300;8.70599800;2023-04-06T03:57:56;1.00;99.90
5848;DHT22;8756;49.29324300;8.70599800;2023-04-06T04:00:22;0.90;99.90
5848;DHT22;8756;49.29324300;8.70599800;2023-04-06T04:02:48;0.90;99.90
5848;DHT22;8756;49.29324300;8.70599800;2023-04-06T04:05:13;0.90;99.90
5848;DHT22;8756;49.29324300;8.70599800;2023-04-06T04:07:39;0.90;99.90
5848;DHT22;8756;49.29324300;8.70599800;2023-04-06T04:10:05;0.90;99.90
5848;DHT22;8756;49.29324300;8.70599800;2023-04-06T04:12:31;0.90;99.90
5848;DHT22;8756;49.29324300;8.70599800;2023-04-06T04:14:56;0.90;99.90
5848;DHT22;8756;49.29324300;8.70599800;2023-04-06T04:17:22;0.90;99.90
5848;DHT22;8756;49.29324300;8.70599800;2023-04-06T04:19:47;0.90;99.90
5848;DHT22;8756;49.29324300;8.70599800;2023-04-06T04:22:13;0.90;99.90
5848;DHT22;8756;49.29324300;8.70599800;2023-04-06T04:24:39;0.80;99.90
5848;DHT22;8756;49.29324300;8.70599800;2023-04-06T04:27:04;0.80;99.90
5848;DHT22;8756;49.29324300;8.70599800;2023-04-06T04:29:30;0.80;99.90
5848;DHT22;8756;49.29324300;8.70599800;2023-04-06T04:31:56;0.80;99.90
5848;DHT22;8756;49.29324300;8.70599800;2023-04-06T04:34:22;0.70;99.90
5848;DHT22;8756;49.29324300;8.70599800;2023-04-06T04:36:50;0.70;99.90
5848;DHT22;8756;49.29324300;8.70599800;2023-04-06T04:39:17;0.70;99.90
5848;DHT22;8756;49.29324300;8.70599800;2023-04-06T04:41:42;0.70;99.90
5848;DHT22;8756;49.29324300;8.70599800;2023-04-06T04:44:08;0.70;99.90
5848;DHT22;8756;49.29324300;8.70599800;2023-04-06T04:46:34;0.70;99.90
5848;DHT22;8756;49.29324300;8.70599800;2023-04-06T04:49:02;0.70;99.90
5848;DHT22;8756;49.29324300;8.70599800;2023-04-06T04:51:28;0.70;99.90
5848;DHT22;8756;49.29324300;8.70599800;2023-04-06T04:53:54;0.70;99.90
5848;DHT22;8756;49.29324300;8.70599800;2023-04-06T04:56:19;0.70;99.90
5848;DHT22;8756;49.29324300;8.70599800;2023-04-06T04:58:45;0.70;99.90
5848;DHT22;8756;49.29324300;8.70599800;2023-04-06T05:01:11;0.70;99.90
5848;DHT22;8756;49.29324300;8.70599800;2023-04-06T05:03:36;0.60;99.90
5848;DHT22;8756;49.29324300;8.70599800;2023-04-06T05:06:04;0.60;99.90
5848;DHT22;8756;49.29324300;8.70599800;2023-04-06T05:08:30;0.60;99.90
5848;DHT22;8756;49.29324300;8.70599800;2023-04-06T05:10:56;0.60;99.90
5848;DHT22;8756;49.29324300;8.70599800;2023-04-06T05:13:22;0.60;99.90
5848;DHT22;8756;49.29324300;8.70599800;2023-04-06T05:15:48;0.60;99.90
5848;DHT22;8756;49.29324300;8.70599800;2023-04-06T05:18:13;0.60;99.90
5848;DHT22;8756;49.29324300;8.70599800;2023-04-06T05:20:40;0.60;99.90
5848;DHT22;8756;49.29324300;8.70599800;2023-04-06T05:23:05;0.60;99.90
5848;DHT22;8756;49.29324300;8.70599800;2023-04-06T05:25:32;0.60;99.90
5848;DHT22;8756;49.29324300;8.70599800;2023-04-06T05:27:58;0.60;99.90
5848;DHT22;8756;49.29324300;8.70599800;2023-04-06T05:30:24;0.60;99.90
5848;DHT22;8756;49.29324300;8.70599800;2023-04-06T05:32:52;0.60;99.90
5848;DHT22;8756;49.29324300;8.70599800;2023-04-06T05:35:18;0.60;99.90
5848;DHT22;8756;49.29324300;8.70599800;2023-04-06T05:37:44;0.60;99.90
5848;DHT22;8756;49.29324300;8.70599800;2023-04-06T05:40:09;0.60;99.90
5848;DHT22;8756;49.29324300;8.70599800;2023-04-06T05:42:42;0.70;99.90
5848;DHT22;8756;49.29324300;8.70599800;2023-04-06T05:45:09;0.70;99.90
5848;DHT22;8756;49.29324300;8.70599800;2023-04-06T05:47:45;0.70;99.90
5848;DHT22;8756;49.29324300;8.70599800;2023-04-06T05:50:11;0.70;99.90
5848;DHT22;8756;49.29324300;8.70599800;2023-04-06T05:52:37;0.70;99.90
5848;DHT22;8756;49.29324300;8.70599800;2023-04-06T05:55:04;0.80;99.90
5848;DHT22;8756;49.29324300;8.70599800;2023-04-06T05:57:30;0.80;99.90
5848;DHT22;8756;49.29324300;8.70599800;2023-04-06T05:59:55;0.80;99.90
5848;DHT22;8756;49.29324300;8.70599800;2023-04-06T06:02:21;0.80;99.90
5848;DHT22;8756;49.29324300;8.70599800;2023-04-06T06:04:47;0.90;99.90
5848;DHT22;8756;49.29324300;8.70599800;2023-04-06T06:07:14;0.90;99.90
5848;DHT22;8756;49.29324300;8.70599800;2023-04-06T06:09:40;1.00;99.90
5848;DHT22;8756;49.29324300;8.70599800;2023-04-06T06:12:06;1.10;99.90
5848;DHT22;8756;49.29324300;8.70599800;2023-04-06T06:14:31;1.10;99.90
5848;DHT22;8756;49.29324300;8.70599800;2023-04-06T06:16:57;1.20;99.90
5848;DHT22;8756;49.29324300;8.70599800;2023-04-06T06:19:23;1.30;99.90
5848;DHT22;8756;49.29324300;8.70599800;2023-04-06T06:21:48;1.40;99.90
5848;DHT22;8756;49.29324300;8.70599800;2023-04-06T06:24:14;1.40;99.90
5848;DHT22;8756;49.29324300;8.70599800;2023-04-06T06:26:40;1.50;99.90
5848;DHT22;8756;49.29324300;8.70599800;2023-04-06T06:29:06;1.60;99.90
5848;DHT22;8756;49.29324300;8.70599800;2023-04-06T06:31:32;1.70;99.90
5848;DHT22;8756;49.29324300;8.70599800;2023-04-06T06:33:58;1.80;99.90
5848;DHT22;8756;49.29324300;8.70599800;2023-04-06T06:36:25;2.00;99.90
5848;DHT22;8756;49.29324300;8.70599800;2023-04-06T06:38:51;2.20;99.90
5848;DHT22;8756;49.29324300;8.70599800;2023-04-06T06:41:17;2.30;99.90
5848;DHT22;8756;49.29324300;8.70599800;2023-04-06T06:43:42;2.40;99.90
5848;DHT22;8756;49.29324300;8.70599800;2023-04-06T06:46:08;2.50;99.90
5848;DHT22;8756;49.29324300;8.70599800;2023-04-06T06:48:34;2.70;99.90
5848;DHT22;8756;49.29324300;8.70599800;2023-04-06T06:50:59;2.80;99.90
5848;DHT22;8756;49.29324300;8.70599800;2023-04-06T06:53:25;2.90;99.90
5848;DHT22;8756;49.29324300;8.70599800;2023-04-06T06:55:51;3.00;99.90
5848;DHT22;8756;49.29324300;8.70599800;2023-04-06T06:58:18;3.20;99.90
5848;DHT22;8756;49.29324300;8.70599800;2023-04-06T07:00:47;3.40;99.90
5848;DHT22;8756;49.29324300;8.70599800;2023-04-06T07:03:13;3.60;99.90
5848;DHT22;8756;49.29324300;8.70599800;2023-04-06T07:05:44;3.80;99.90
5848;DHT22;8756;49.29324300;8.70599800;2023-04-06T07:08:14;3.90;99.90
5848;DHT22;8756;49.29324300;8.70599800;2023-04-06T07:10:40;4.00;99.90
5848;DHT22;8756;49.29324300;8.70599800;2023-04-06T07:13:06;4.10;99.90
5848;DHT22;8756;49.29324300;8.70599800;2023-04-06T07:15:31;4.30;99.90
5848;DHT22;8756;49.29324300;8.70599800;2023-04-06T07:17:57;4.40;99.90
5848;DHT22;8756;49.29324300;8.70599800;2023-04-06T07:20:22;4.40;99.90
5848;DHT22;8756;49.29324300;8.70599800;2023-04-06T07:22:48;4.40;99.90
5848;DHT22;8756;49.29324300;8.70599800;2023-04-06T07:25:14;4.40;99.90
5848;DHT22;8756;49.29324300;8.70599800;2023-04-06T07:27:40;4.40;99.90
5848;DHT22;8756;49.29324300;8.70599800;2023-04-06T07:30:06;4.40;99.90
5848;DHT22;8756;49.29324300;8.70599800;2023-04-06T07:32:32;4.40;99.90
5848;DHT22;8756;49.29324300;8.70599800;2023-04-06T07:34:59;4.40;99.90
5848;DHT22;8756;49.29324300;8.70599800;2023-04-06T07:37:25;4.40;99.90
5848;DHT22;8756;49.29324300;8.70599800;2023-04-06T07:39:51;4.40;99.90
5848;DHT22;8756;49.29324300;8.70599800;2023-04-06T07:42:16;4.50;99.90
5848;DHT22;8756;49.29324300;8.70599800;2023-04-06T07:44:42;4.60;99.90
5848;DHT22;8756;49.29324300;8.70599800;2023-04-06T07:47:08;4.70;99.90
5848;DHT22;8756;49.29324300;8.70599800;2023-04-06T07:49:33;4.70;99.90
5848;DHT22;8756;49.29324300;8.70599800;2023-04-06T07:51:59;4.80;99.90
5848;DHT22;8756;49.29324300;8.70599800;2023-04-06T07:54:25;4.90;99.90
5848;DHT22;8756;49.29324300;8.70599800;2023-04-06T07:56:51;5.00;99.90
5848;DHT22;8756;49.29324300;8.70599800;2023-04-06T07:59:17;5.00;99.90
5848;DHT22;8756;49.29324300;8.70599800;2023-04-06T08:01:42;5.10;99.90
5848;DHT22;8756;49.29324300;8.70599800;2023-04-06T08:04:08;5.20;99.90
5848;DHT22;8756;49.29324300;8.70599800;2023-04-06T08:06:33;5.40;99.90
5848;DHT22;8756;49.29324300;8.70599800;2023-04-06T08:09:00;5.40;99.90
5848;DHT22;8756;49.29324300;8.70599800;2023-04-06T08:11:25;5.40;99.90
5848;DHT22;8756;49.29324300;8.70599800;2023-04-06T08:13:52;5.50;99.90
5848;DHT22;8756;49.29324300;8.70599800;2023-04-06T08:16:18;5.60;99.90
5848;DHT22;8756;49.29324300;8.70599800;2023-04-06T08:18:44;5.60;99.90
5848;DHT22;8756;49.29324300;8.70599800;2023-04-06T08:21:10;5.70;99.90
5848;DHT22;8756;49.29324300;8.70599800;2023-04-06T08:23:36;5.70;99.90
5848;DHT22;8756;49.29324300;8.70599800;2023-04-06T08:26:01;5.80;99.90
5848;DHT22;8756;49.29324300;8.70599800;2023-04-06T08:28:27;5.90;99.90
5848;DHT22;8756;49.29324300;8.70599800;2023-04-06T08:30:53;6.00;99.90
5848;DHT22;8756;49.29324300;8.70599800;2023-04-06T08:33:18;6.10;99.90
5848;DHT22;8756;49.29324300;8.70599800;2023-04-06T08:35:44;6.20;99.90
5848;DHT22;8756;49.29324300;8.70599800;2023-04-06T08:38:13;6.20;99.90
5848;DHT22;8756;49.29324300;8.70599800;2023-04-06T08:40:39;6.30;99.90
5848;DHT22;8756;49.29324300;8.70599800;2023-04-06T08:43:09;6.40;99.90
5848;DHT22;8756;49.29324300;8.70599800;2023-04-06T08:45:41;6.40;99.90
5848;DHT22;8756;49.29324300;8.70599800;2023-04-06T08:48:08;6.50;99.90
5848;DHT22;8756;49.29324300;8.70599800;2023-04-06T08:50:35;6.50;99.90
5848;DHT22;8756;49.29324300;8.70599800;2023-04-06T08:53:01;6.60;99.90
5848;DHT22;8756;49.29324300;8.70599800;2023-04-06T08:55:27;6.70;99.90
5848;DHT22;8756;49.29324300;8.70599800;2023-04-06T08:57:54;6.70;99.90
5848;DHT22;8756;49.29324300;8.70599800;2023-04-06T09:00:21;6.70;99.90
5848;DHT22;8756;49.29324300;8.70599800;2023-04-06T09:02:53;6.80;99.90
5848;DHT22;8756;49.29324300;8.70599800;2023-04-06T09:05:20;6.80;99.90
5848;DHT22;8756;49.29324300;8.70599800;2023-04-06T09:07:47;6.90;99.90
5848;DHT22;8756;49.29324300;8.70599800;2023-04-06T09:10:16;6.90;99.90
5848;DHT22;8756;49.29324300;8.70599800;2023-04-06T09:12:42;7.00;99.90
5848;DHT22;8756;49.29324300;8.70599800;2023-04-06T09:15:21;7.00;99.90
5848;DHT22;8756;49.29324300;8.70599800;2023-04-06T09:17:47;7.20;99.90
5848;DHT22;8756;49.29324300;8.70599800;2023-04-06T09:20:13;7.30;99.90
5848;DHT22;8756;49.29324300;8.70599800;2023-04-06T09:22:39;7.40;99.90
5848;DHT22;8756;49.29324300;8.70599800;2023-04-06T09:25:06;7.50;99.90
5848;DHT22;8756;49.29324300;8.70599800;2023-04-06T09:27:35;7.60;99.90
5848;DHT22;8756;49.29324300;8.70599800;2023-04-06T09:30:06;7.70;99.90
5848;DHT22;8756;49.29324300;8.70599800;2023-04-06T09:32:44;7.80;99.90
5848;DHT22;8756;49.29324300;8.70599800;2023-04-06T09:35:13;7.80;99.90
5848;DHT22;8756;49.29324300;8.70599800;2023-04-06T09:37:40;7.90;99.90
5848;DHT22;8756;49.29324300;8.70599800;2023-04-06T09:40:08;7.90;99.90
5848;DHT22;8756;49.29324300;8.70599800;2023-04-06T09:42:35;7.90;99.90
5848;DHT22;8756;49.29324300;8.70599800;2023-04-06T09:45:04;8.00;99.90
5848;DHT22;8756;49.29324300;8.70599800;2023-04-06T09:47:35;8.00;99.90
5848;DHT22;8756;49.29324300;8.70599800;2023-04-06T09:50:02;8.00;99.90
5848;DHT22;8756;49.29324300;8.70599800;2023-04-06T09:52:35;8.10;99.90
5848;DHT22;8756;49.29324300;8.70599800;2023-04-06T09:55:04;8.00;99.90
5848;DHT22;8756;49.29324300;8.70599800;2023-04-06T09:58:04;8.20;99.90
5848;DHT22;8756;49.29324300;8.70599800;2023-04-06T10:00:34;8.40;99.90
5848;DHT22;8756;49.29324300;8.70599800;2023-04-06T10:03:29;8.60;99.90
5848;DHT22;8756;49.29324300;8.70599800;2023-04-06T10:06:05;8.60;99.90
5848;DHT22;8756;49.29324300;8.70599800;2023-04-06T10:08:38;8.70;99.90
5848;DHT22;8756;49.29324300;8.70599800;2023-04-06T10:11:07;8.80;99.90
5848;DHT22;8756;49.29324300;8.70599800;2023-04-06T10:13:34;8.70;99.90
5848;DHT22;8756;49.29324300;8.70599800;2023-04-06T10:16:00;8.70;99.90
5848;DHT22;8756;49.29324300;8.70599800;2023-04-06T10:18:27;8.80;99.90
5848;DHT22;8756;49.29324300;8.70599800;2023-04-06T10:21:07;8.80;99.90
5848;DHT22;8756;49.29324300;8.70599800;2023-04-06T10:23:47;8.80;99.90
5848;DHT22;8756;49.29324300;8.70599800;2023-04-06T10:26:15;8.90;99.90
5848;DHT22;8756;49.29324300;8.70599800;2023-04-06T10:28:44;8.90;99.90
5848;DHT22;8756;49.29324300;8.70599800;2023-04-06T10:31:11;9.00;99.90
5848;DHT22;8756;49.29324300;8.70599800;2023-04-06T10:33:37;9.10;99.90
5848;DHT22;8756;49.29324300;8.70599800;2023-04-06T10:36:21;9.30;99.90
5848;DHT22;8756;49.29324300;8.70599800;2023-04-06T10:38:56;9.40;99.90
5848;DHT22;8756;49.29324300;8.70599800;2023-04-06T10:41:24;9.50;99.90
5848;DHT22;8756;49.29324300;8.70599800;2023-04-06T10:43:57;9.60;99.90
5848;DHT22;8756;49.29324300;8.70599800;2023-04-06T10:46:25;9.60;99.90
5848;DHT22;8756;49.29324300;8.70599800;2023-04-06T10:48:52;9.80;99.90
5848;DHT22;8756;49.29324300;8.70599800;2023-04-06T10:51:19;9.80;99.90
5848;DHT22;8756;49.29324300;8.70599800;2023-04-06T10:53:47;9.90;99.90
5848;DHT22;8756;49.29324300;8.70599800;2023-04-06T10:56:15;10.00;99.90
5848;DHT22;8756;49.29324300;8.70599800;2023-04-06T10:58:46;10.00;99.90
5848;DHT22;8756;49.29324300;8.70599800;2023-04-06T11:01:15;10.10;99.90
5848;DHT22;8756;49.29324300;8.70599800;2023-04-06T11:03:46;10.10;99.90
5848;DHT22;8756;49.29324300;8.70599800;2023-04-06T11:06:23;10.20;99.90
5848;DHT22;8756;49.29324300;8.70599800;2023-04-06T11:08:50;10.20;99.90
5848;DHT22;8756;49.29324300;8.70599800;2023-04-06T11:11:18;10.20;99.90
5848;DHT22;8756;49.29324300;8.70599800;2023-04-06T11:13:50;10.20;99.90
5848;DHT22;8756;49.29324300;8.70599800;2023-04-06T11:16:22;10.30;99.90
5848;DHT22;8756;49.29324300;8.70599800;2023-04-06T11:18:54;10.30;99.90
5848;DHT22;8756;49.29324300;8.70599800;2023-04-06T11:21:45;10.40;99.90
5848;DHT22;8756;49.29324300;8.70599800;2023-04-06T11:26:47;10.50;99.90
5848;DHT22;8756;49.29324300;8.70599800;2023-04-06T11:29:18;10.50;99.90
5848;DHT22;8756;49.29324300;8.70599800;2023-04-06T11:31:50;10.60;99.90
5848;DHT22;8756;49.29324300;8.70599800;2023-04-06T11:34:24;10.70;99.90
5848;DHT22;8756;49.29324300;8.70599800;2023-04-06T11:37:01;10.70;99.90
5848;DHT22;8756;49.29324300;8.70599800;2023-04-06T11:39:31;10.80;99.90
5848;DHT22;8756;49.29324300;8.70599800;2023-04-06T11:42:00;10.80;99.90
5848;DHT22;8756;49.29324300;8.70599800;2023-04-06T11:44:34;10.90;99.90
5848;DHT22;8756;49.29324300;8.70599800;2023-04-06T11:47:05;11.10;99.90
5848;DHT22;8756;49.29324300;8.70599800;2023-04-06T11:49:37;11.20;99.90
5848;DHT22;8756;49.29324300;8.70599800;2023-04-06T11:52:18;11.30;99.90
5848;DHT22;8756;49.29324300;8.70599800;2023-04-06T11:54:45;11.30;99.90
5848;DHT22;8756;49.29324300;8.70599800;2023-04-06T11:57:11;11.30;99.60
5848;DHT22;8756;49.29324300;8.70599800;2023-04-06T11:59:37;11.30;98.60
5848;DHT22;8756;49.29324300;8.70599800;2023-04-06T12:02:03;11.30;99.10
5848;DHT22;8756;49.29324300;8.70599800;2023-04-06T12:04:29;11.40;96.40
5848;DHT22;8756;49.29324300;8.70599800;2023-04-06T12:06:55;11.50;97.30
5848;DHT22;8756;49.29324300;8.70599800;2023-04-06T12:09:22;11.50;99.90
5848;DHT22;8756;49.29324300;8.70599800;2023-04-06T12:11:48;11.60;99.90
5848;DHT22;8756;49.29324300;8.70599800;2023-04-06T12:14:13;11.70;99.90
5848;DHT22;8756;49.29324300;8.70599800;2023-04-06T12:16:40;11.70;98.80
5848;DHT22;8756;49.29324300;8.70599800;2023-04-06T12:19:06;11.80;97.20
5848;DHT22;8756;49.29324300;8.70599800;2023-04-06T12:21:32;11.90;99.90
5848;DHT22;8756;49.29324300;8.70599800;2023-04-06T12:24:00;11.90;98.30
5848;DHT22;8756;49.29324300;8.70599800;2023-04-06T12:26:26;12.00;97.70
5848;DHT22;8756;49.29324300;8.70599800;2023-04-06T12:28:52;12.00;99.50
5848;DHT22;8756;49.29324300;8.70599800;2023-04-06T12:31:20;12.00;95.00
5848;DHT22;8756;49.29324300;8.70599800;2023-04-06T12:33:47;12.10;96.50
5848;DHT22;8756;49.29324300;8.70599800;2023-04-06T12:36:19;12.10;97.80
5848;DHT22;8756;49.29324300;8.70599800;2023-04-06T12:38:47;12.10;99.90
5848;DHT22;8756;49.29324300;8.70599800;2023-04-06T12:41:17;12.10;99.90
5848;DHT22;8756;49.29324300;8.70599800;2023-04-06T12:43:43;12.10;99.90
5848;DHT22;8756;49.29324300;8.70599800;2023-04-06T12:46:10;12.10;99.10
5848;DHT22;8756;49.29324300;8.70599800;2023-04-06T12:48:36;12.10;96.00
5848;DHT22;8756;49.29324300;8.70599800;2023-04-06T12:51:04;12.00;95.10
5848;DHT22;8756;49.29324300;8.70599800;2023-04-06T12:53:31;12.10;99.40
5848;DHT22;8756;49.29324300;8.70599800;2023-04-06T12:55:57;12.10;99.40
5848;DHT22;8756;49.29324300;8.70599800;2023-04-06T12:58:24;12.10;95.40
5848;DHT22;8756;49.29324300;8.70599800;2023-04-06T13:00:52;12.10;96.90
5848;DHT22;8756;49.29324300;8.70599800;2023-04-06T13:03:21;12.10;96.30
5848;DHT22;8756;49.29324300;8.70599800;2023-04-06T13:05:51;12.20;95.70
5848;DHT22;8756;49.29324300;8.70599800;2023-04-06T13:08:18;12.20;94.70
5848;DHT22;8756;49.29324300;8.70599800;2023-04-06T13:10:50;12.20;94.90
5848;DHT22;8756;49.29324300;8.70599800;2023-04-06T13:13:28;12.10;97.60
5848;DHT22;8756;49.29324300;8.70599800;2023-04-06T13:15:59;12.20;93.80
5848;DHT22;8756;49.29324300;8.70599800;2023-04-06T13:18:28;12.30;94.70
5848;DHT22;8756;49.29324300;8.70599800;2023-04-06T13:20:55;12.30;96.80
5848;DHT22;8756;49.29324300;8.70599800;2023-04-06T13:23:22;12.40;93.80
5848;DHT22;8756;49.29324300;8.70599800;2023-04-06T13:25:48;12.50;95.00
5848;DHT22;8756;49.29324300;8.70599800;2023-04-06T13:28:13;12.50;95.00
5848;DHT22;8756;49.29324300;8.70599800;2023-04-06T13:30:39;12.60;95.70
5848;DHT22;8756;49.29324300;8.70599800;2023-04-06T13:33:07;12.60;95.10
5848;DHT22;8756;49.29324300;8.70599800;2023-04-06T13:35:33;12.70;92.40
5848;DHT22;8756;49.29324300;8.70599800;2023-04-06T13:38:00;12.70;91.30
5848;DHT22;8756;49.29324300;8.70599800;2023-04-06T13:40:26;12.70;91.00
5848;DHT22;8756;49.29324300;8.70599800;2023-04-06T13:42:52;12.60;93.00
5848;DHT22;8756;49.29324300;8.70599800;2023-04-06T13:45:17;12.70;93.90
5848;DHT22;8756;49.29324300;8.70599800;2023-04-06T13:47:43;12.60;92.60
5848;DHT22;8756;49.29324300;8.70599800;2023-04-06T13:50:09;12.70;92.60
5848;DHT22;8756;49.29324300;8.70599800;2023-04-06T13:52:35;12.70;94.00
5848;DHT22;8756;49.29324300;8.70599800;2023-04-06T13:55:01;12.80;96.60
5848;DHT22;8756;49.29324300;8.70599800;2023-04-06T13:57:27;12.80;95.20